createdAt,value
2017-06-28T00:00:31.449Z,23.08
2017-06-28T00:01:32.342Z,23.03
2017-06-28T00:02:32.986Z,23.06
2017-06-28T00:03:33.627Z,23.12
2017-06-28T00:04:34.269Z,23.06
2017-06-28T00:05:34.914Z,23.03
2017-06-28T00:06:35.504Z,23.08
2017-06-28T00:07:36.148Z,23.08
2017-06-28T00:08:36.791Z,23.05
2017-06-28T00:09:37.582Z,23.03
2017-06-28T00:10:38.227Z,23.05
2017-06-28T00:11:38.875Z,23.05
2017-06-28T00:12:39.521Z,23.05
2017-06-28T00:13:40.112Z,23.00
2017-06-28T00:14:40.759Z,22.99
2017-06-28T00:15:41.459Z,23.06
2017-06-28T00:16:42.102Z,23.08
2017-06-28T00:17:42.746Z,23.05
2017-06-28T00:18:43.586Z,23.02
2017-06-28T00:19:44.232Z,23.02
2017-06-28T00:20:44.873Z,23.00
2017-06-28T00:21:45.515Z,23.15
2017-06-28T00:22:46.159Z,23.02
2017-06-28T00:23:46.801Z,23.06
2017-06-28T00:24:47.444Z,23.08
2017-06-28T00:25:48.088Z,23.03
2017-06-28T00:26:48.883Z,23.02
2017-06-28T00:27:49.524Z,23.06
2017-06-28T00:28:50.167Z,23.06
2017-06-28T00:29:51.011Z,23.02
2017-06-28T00:30:51.652Z,23.00
2017-06-28T00:31:52.296Z,22.93
2017-06-28T00:32:52.937Z,22.99
2017-06-28T00:33:53.582Z,22.96
2017-06-28T00:34:54.224Z,22.93
2017-06-28T00:35:54.870Z,23.02
2017-06-28T00:36:55.513Z,22.93
2017-06-28T00:37:56.354Z,22.96
2017-06-28T00:38:56.997Z,22.96
2017-06-28T00:39:57.641Z,22.85
2017-06-28T00:40:58.284Z,22.93
2017-06-28T00:41:58.928Z,22.94
2017-06-28T00:42:59.571Z,22.93
2017-06-28T00:44:00.213Z,22.85
2017-06-28T00:45:00.854Z,22.91
2017-06-28T00:46:01.797Z,22.96
2017-06-28T00:47:02.444Z,22.91
2017-06-28T00:48:03.140Z,22.91
2017-06-28T00:49:03.783Z,22.91
2017-06-28T00:50:04.434Z,22.87
2017-06-28T00:51:05.084Z,22.90
2017-06-28T00:52:05.727Z,22.81
2017-06-28T00:53:06.370Z,22.87
2017-06-28T00:54:07.014Z,22.87
2017-06-28T00:55:07.856Z,22.88
2017-06-28T00:56:08.500Z,22.85
2017-06-28T00:57:09.142Z,22.85
2017-06-28T00:58:09.788Z,22.88
2017-06-28T00:59:10.433Z,22.85
2017-06-28T01:00:11.075Z,22.91
2017-06-28T01:01:11.716Z,22.87
2017-06-28T01:02:12.358Z,22.88
2017-06-28T01:03:13.201Z,22.85
2017-06-28T01:04:13.846Z,22.87
2017-06-28T01:05:14.489Z,22.83
2017-06-28T01:06:15.129Z,22.87
2017-06-28T01:07:15.772Z,22.85
2017-06-28T01:08:16.420Z,22.88
2017-06-28T01:09:17.062Z,22.84
2017-06-28T01:10:17.706Z,22.81
2017-06-28T01:11:18.351Z,22.85
2017-06-28T01:12:18.996Z,22.85
2017-06-28T01:13:19.639Z,22.85
2017-06-28T01:14:20.281Z,22.84
2017-06-28T01:15:20.923Z,22.84
2017-06-28T01:16:21.567Z,22.83
2017-06-28T01:17:22.213Z,22.91
2017-06-28T01:18:22.851Z,22.84
2017-06-28T01:19:23.696Z,22.84
2017-06-28T01:20:24.340Z,22.85
2017-06-28T01:21:24.981Z,22.84
2017-06-28T01:22:25.625Z,22.81
2017-06-28T01:23:26.265Z,22.84
2017-06-28T01:24:26.910Z,22.81
2017-06-28T01:25:27.555Z,22.81
2017-06-28T01:26:28.197Z,22.84
2017-06-28T01:27:29.038Z,22.80
2017-06-28T01:28:29.682Z,22.80
2017-06-28T01:29:30.324Z,22.84
2017-06-28T01:30:30.969Z,22.84
2017-06-28T01:31:31.611Z,22.73
2017-06-28T01:32:32.255Z,22.83
2017-06-28T01:33:32.895Z,22.80
2017-06-28T01:34:33.538Z,22.78
2017-06-28T01:35:34.180Z,22.85
2017-06-28T01:36:35.024Z,22.80
2017-06-28T01:37:35.666Z,22.75
2017-06-28T01:38:36.307Z,22.75
2017-06-28T01:39:36.950Z,22.78
2017-06-28T01:40:37.594Z,22.73
2017-06-28T01:41:38.238Z,22.78
2017-06-28T01:42:38.881Z,22.80
2017-06-28T01:43:39.523Z,22.75
2017-06-28T01:44:40.373Z,22.75
2017-06-28T01:45:41.016Z,22.75
2017-06-28T01:46:41.658Z,22.76
2017-06-28T01:47:42.300Z,22.78
2017-06-28T01:48:42.944Z,22.73
2017-06-28T01:49:43.593Z,22.78
2017-06-28T01:50:44.232Z,22.75
2017-06-28T01:51:44.872Z,22.72
2017-06-28T01:52:45.567Z,22.76
2017-06-28T01:53:46.209Z,22.75
2017-06-28T01:54:46.851Z,22.75
2017-06-28T01:55:47.495Z,22.85
2017-06-28T01:56:48.138Z,22.72
2017-06-28T01:57:48.782Z,22.72
2017-06-28T01:58:49.425Z,22.76
2017-06-28T01:59:50.069Z,22.80
2017-06-28T02:00:50.911Z,22.80
2017-06-28T02:01:51.555Z,22.75
2017-06-28T02:02:52.197Z,22.69
2017-06-28T02:03:52.841Z,22.73
2017-06-28T02:04:53.484Z,22.70
2017-06-28T02:05:54.126Z,22.65
2017-06-28T02:06:54.767Z,22.65
2017-06-28T02:07:55.415Z,22.63
2017-06-28T02:08:56.054Z,22.65
2017-06-28T02:09:56.847Z,22.62
2017-06-28T02:10:57.491Z,22.50
2017-06-28T02:11:58.132Z,22.47
2017-06-28T02:12:58.776Z,22.48
2017-06-28T02:13:59.418Z,22.41
2017-06-28T02:15:00.062Z,22.33
2017-06-28T02:16:00.703Z,22.36
2017-06-28T02:17:01.347Z,22.44
2017-06-28T02:18:02.188Z,22.38
2017-06-28T02:19:02.832Z,22.43
2017-06-28T02:20:03.475Z,22.45
2017-06-28T02:21:04.118Z,22.41
2017-06-28T02:22:04.758Z,22.45
2017-06-28T02:23:05.406Z,22.39
2017-06-28T02:24:06.105Z,22.36
2017-06-28T02:25:06.748Z,22.36
2017-06-28T02:26:07.740Z,22.39
2017-06-28T02:27:08.383Z,22.30
2017-06-28T02:28:09.025Z,22.29
2017-06-28T02:29:09.667Z,22.32
2017-06-28T02:30:10.309Z,22.29
2017-06-28T02:31:10.952Z,22.32
2017-06-28T02:32:11.598Z,22.36
2017-06-28T02:33:12.239Z,22.26
2017-06-28T02:34:13.079Z,22.28
2017-06-28T02:35:13.722Z,22.29
2017-06-28T02:36:14.365Z,22.23
2017-06-28T02:37:15.009Z,22.25
2017-06-28T02:38:15.652Z,22.23
2017-06-28T02:39:16.301Z,22.18
2017-06-28T02:40:16.943Z,22.22
2017-06-28T02:41:17.584Z,22.22
2017-06-28T02:42:18.375Z,22.20
2017-06-28T02:43:19.067Z,22.26
2017-06-28T02:44:19.708Z,22.22
2017-06-28T02:45:20.354Z,22.28
2017-06-28T02:46:20.995Z,22.18
2017-06-28T02:47:21.636Z,22.23
2017-06-28T02:48:22.279Z,22.23
2017-06-28T02:49:22.922Z,22.20
2017-06-28T02:50:23.563Z,22.25
2017-06-28T02:51:24.405Z,22.23
2017-06-28T02:52:25.047Z,22.26
2017-06-28T02:53:25.689Z,22.30
2017-06-28T02:54:26.333Z,22.22
2017-06-28T02:55:26.974Z,22.22
2017-06-28T02:56:27.617Z,22.29
2017-06-28T02:57:28.258Z,22.23
2017-06-28T02:58:28.902Z,22.18
2017-06-28T02:59:29.751Z,22.22
2017-06-28T03:00:30.385Z,22.25
2017-06-28T03:01:31.030Z,22.18
2017-06-28T03:02:31.670Z,22.23
2017-06-28T03:03:32.312Z,22.26
2017-06-28T03:04:32.956Z,22.26
2017-06-28T03:05:33.600Z,22.26
2017-06-28T03:06:34.242Z,22.23
2017-06-28T03:07:35.033Z,22.30
2017-06-28T03:08:35.676Z,22.26
2017-06-28T03:09:36.321Z,22.25
2017-06-28T03:10:36.964Z,22.25
2017-06-28T03:11:37.605Z,22.25
2017-06-28T03:12:38.248Z,22.25
2017-06-28T03:13:38.891Z,22.26
2017-06-28T03:14:39.535Z,22.22
2017-06-28T03:15:40.374Z,22.26
2017-06-28T03:16:41.017Z,22.26
2017-06-28T03:17:41.657Z,22.26
2017-06-28T03:18:42.300Z,22.17
2017-06-28T03:19:42.943Z,22.26
2017-06-28T03:20:43.587Z,22.23
2017-06-28T03:21:44.232Z,22.23
2017-06-28T03:22:44.871Z,22.23
2017-06-28T03:23:45.513Z,22.23
2017-06-28T03:24:46.404Z,22.28
2017-06-28T03:25:47.045Z,22.23
2017-06-28T03:26:47.691Z,22.26
2017-06-28T03:27:48.335Z,22.18
2017-06-28T03:28:48.976Z,22.22
2017-06-28T03:29:49.618Z,22.25
2017-06-28T03:30:50.264Z,22.18
2017-06-28T03:31:50.902Z,22.17
2017-06-28T03:32:51.694Z,22.17
2017-06-28T03:33:52.337Z,22.22
2017-06-28T03:34:52.980Z,22.23
2017-06-28T03:35:53.622Z,22.11
2017-06-28T03:36:54.262Z,22.23
2017-06-28T03:37:54.904Z,22.23
2017-06-28T03:38:55.547Z,22.25
2017-06-28T03:39:56.192Z,22.18
2017-06-28T03:40:57.083Z,22.18
2017-06-28T03:41:57.726Z,22.17
2017-06-28T03:42:58.368Z,22.22
2017-06-28T03:43:59.011Z,22.25
2017-06-28T03:44:59.656Z,22.17
2017-06-28T03:46:00.300Z,22.28
2017-06-28T03:47:00.942Z,22.22
2017-06-28T03:48:01.585Z,22.23
2017-06-28T03:49:02.478Z,22.23
2017-06-28T03:50:03.118Z,22.22
2017-06-28T03:51:03.760Z,22.15
2017-06-28T03:52:04.404Z,22.25
2017-06-28T03:53:05.046Z,22.18
2017-06-28T03:54:05.690Z,22.20
2017-06-28T03:55:06.333Z,22.18
2017-06-28T03:56:06.976Z,22.22
2017-06-28T03:57:07.819Z,22.23
2017-06-28T03:58:08.462Z,22.25
2017-06-28T03:59:09.104Z,22.22
2017-06-28T04:00:09.746Z,22.20
2017-06-28T04:01:10.390Z,22.20
2017-06-28T04:02:11.031Z,22.25
2017-06-28T04:03:11.673Z,22.23
2017-06-28T04:04:12.317Z,22.26
2017-06-28T04:05:12.959Z,22.23
2017-06-28T04:06:13.803Z,22.23
2017-06-28T04:07:14.446Z,22.22
2017-06-28T04:08:15.088Z,22.25
2017-06-28T04:09:15.729Z,22.28
2017-06-28T04:10:16.375Z,22.23
2017-06-28T04:11:17.016Z,22.25
2017-06-28T04:12:17.659Z,22.25
2017-06-28T04:13:18.300Z,22.23
2017-06-28T04:14:19.194Z,22.26
2017-06-28T04:15:19.843Z,22.28
2017-06-28T04:16:20.481Z,22.23
2017-06-28T04:17:21.123Z,22.22
2017-06-28T04:18:21.766Z,22.28
2017-06-28T04:19:22.407Z,22.25
2017-06-28T04:20:23.050Z,22.23
2017-06-28T04:21:23.692Z,22.22
2017-06-28T04:22:24.534Z,22.25
2017-06-28T04:23:25.176Z,22.23
2017-06-28T04:24:25.816Z,22.25
2017-06-28T04:25:26.460Z,22.20
2017-06-28T04:26:27.104Z,22.20
2017-06-28T04:27:27.744Z,22.13
2017-06-28T04:28:28.386Z,22.14
2017-06-28T04:29:29.032Z,22.15
2017-06-28T04:30:29.876Z,22.18
2017-06-28T04:31:30.518Z,22.23
2017-06-28T04:32:31.162Z,22.22
2017-06-28T04:33:31.802Z,22.18
2017-06-28T04:34:32.445Z,22.18
2017-06-28T04:35:33.088Z,22.18
2017-06-28T04:36:33.732Z,22.23
2017-06-28T04:37:34.374Z,22.23
2017-06-28T04:38:35.015Z,22.22
2017-06-28T04:39:35.859Z,22.18
2017-06-28T04:40:36.506Z,22.14
2017-06-28T04:41:37.148Z,22.23
2017-06-28T04:42:37.789Z,22.22
2017-06-28T04:43:38.432Z,22.20
2017-06-28T04:44:39.078Z,22.23
2017-06-28T04:45:39.716Z,22.26
2017-06-28T04:46:40.360Z,22.22
2017-06-28T04:47:41.752Z,22.25
2017-06-28T04:48:42.393Z,22.20
2017-06-28T04:49:43.040Z,22.18
2017-06-28T04:50:43.679Z,22.22
2017-06-28T04:51:44.325Z,22.13
2017-06-28T04:52:44.966Z,22.10
2017-06-28T04:53:45.611Z,22.18
2017-06-28T04:54:46.253Z,22.13
2017-06-28T04:55:47.094Z,22.22
2017-06-28T04:56:47.736Z,22.15
2017-06-28T04:57:48.380Z,22.14
2017-06-28T04:58:49.025Z,22.22
2017-06-28T04:59:49.668Z,22.14
2017-06-28T05:00:50.310Z,22.17
2017-06-28T05:01:50.951Z,22.14
2017-06-28T05:02:51.591Z,22.14
2017-06-28T05:03:52.633Z,22.13
2017-06-28T05:04:53.275Z,22.20
2017-06-28T05:05:53.919Z,22.11
2017-06-28T05:06:54.561Z,22.14
2017-06-28T05:07:55.204Z,22.18
2017-06-28T05:08:55.847Z,22.11
2017-06-28T05:09:56.488Z,22.15
2017-06-28T05:10:57.129Z,22.10
2017-06-28T05:11:57.972Z,22.13
2017-06-28T05:12:58.617Z,22.08
2017-06-28T05:13:59.262Z,22.13
2017-06-28T05:14:59.902Z,22.15
2017-06-28T05:16:00.546Z,22.18
2017-06-28T05:17:01.188Z,22.06
2017-06-28T05:18:01.832Z,22.14
2017-06-28T05:19:02.471Z,22.11
2017-06-28T05:20:03.116Z,22.11
2017-06-28T05:21:04.008Z,22.18
2017-06-28T05:22:04.653Z,22.13
2017-06-28T05:23:05.292Z,22.10
2017-06-28T05:24:05.935Z,22.10
2017-06-28T05:25:06.579Z,22.11
2017-06-28T05:26:07.279Z,22.18
2017-06-28T05:27:07.923Z,22.15
2017-06-28T05:28:08.563Z,22.14
2017-06-28T05:29:09.405Z,22.15
2017-06-28T05:30:10.048Z,22.14
2017-06-28T05:31:10.691Z,22.14
2017-06-28T05:32:11.330Z,22.14
2017-06-28T05:33:11.971Z,22.07
2017-06-28T05:34:12.617Z,22.14
2017-06-28T05:35:13.259Z,22.11
2017-06-28T05:36:13.900Z,22.10
2017-06-28T05:37:14.792Z,22.10
2017-06-28T05:38:15.434Z,22.14
2017-06-28T05:39:16.075Z,22.14
2017-06-28T05:40:16.718Z,22.14
2017-06-28T05:41:17.363Z,22.11
2017-06-28T05:42:18.006Z,22.13
2017-06-28T05:43:18.650Z,22.10
2017-06-28T05:44:19.289Z,22.08
2017-06-28T05:45:20.280Z,22.13
2017-06-28T05:46:20.924Z,22.04
2017-06-28T05:47:21.565Z,22.10
2017-06-28T05:48:22.209Z,22.08
2017-06-28T05:49:22.852Z,22.00
2017-06-28T05:50:23.550Z,22.06
2017-06-28T05:51:24.192Z,22.02
2017-06-28T05:52:24.836Z,22.07
2017-06-28T05:53:25.479Z,22.02
2017-06-28T05:54:26.471Z,22.06
2017-06-28T05:55:27.111Z,22.10
2017-06-28T05:56:27.752Z,22.04
2017-06-28T05:57:28.397Z,22.08
2017-06-28T05:58:29.037Z,22.10
2017-06-28T05:59:29.679Z,22.08
2017-06-28T06:00:30.322Z,22.08
2017-06-28T06:01:30.966Z,22.08
2017-06-28T06:02:31.757Z,22.10
2017-06-28T06:03:32.400Z,22.07
2017-06-28T06:04:33.062Z,22.02
2017-06-28T06:05:33.682Z,22.11
2017-06-28T06:06:34.324Z,22.13
2017-06-28T06:07:34.965Z,22.08
2017-06-28T06:08:35.607Z,22.14
2017-06-28T06:09:36.248Z,22.13
2017-06-28T06:10:37.091Z,22.13
2017-06-28T06:11:37.733Z,22.11
2017-06-28T06:12:38.377Z,22.08
2017-06-28T06:13:39.077Z,22.13
2017-06-28T06:14:39.718Z,22.10
2017-06-28T06:15:40.360Z,22.06
2017-06-28T06:16:41.008Z,22.17
2017-06-28T06:17:41.645Z,22.10
2017-06-28T06:18:42.438Z,22.08
2017-06-28T06:19:43.082Z,22.06
2017-06-28T06:20:43.722Z,22.07
2017-06-28T06:21:44.365Z,22.07
2017-06-28T06:22:45.009Z,22.07
2017-06-28T06:23:45.650Z,22.13
2017-06-28T06:24:46.291Z,22.11
2017-06-28T06:25:46.934Z,22.15
2017-06-28T06:26:47.676Z,22.14
2017-06-28T06:27:48.384Z,22.11
2017-06-28T06:28:49.024Z,22.14
2017-06-28T06:29:49.667Z,22.15
2017-06-28T06:30:50.307Z,22.14
2017-06-28T06:31:50.948Z,22.11
2017-06-28T06:32:51.589Z,22.11
2017-06-28T06:33:52.235Z,22.13
2017-06-28T06:34:52.875Z,22.11
2017-06-28T06:35:53.719Z,22.00
2017-06-28T06:36:54.363Z,22.11
2017-06-28T06:37:55.007Z,22.08
2017-06-28T06:38:55.649Z,22.06
2017-06-28T06:39:56.293Z,22.06
2017-06-28T06:40:56.937Z,22.02
2017-06-28T06:41:57.581Z,21.99
2017-06-28T06:42:58.225Z,22.11
2017-06-28T06:43:59.112Z,22.00
2017-06-28T06:44:59.755Z,21.98
2017-06-28T06:46:00.396Z,22.04
2017-06-28T06:47:01.042Z,22.06
2017-06-28T06:48:01.686Z,22.04
2017-06-28T06:49:02.326Z,22.07
2017-06-28T06:50:02.968Z,22.10
2017-06-28T06:51:03.608Z,22.04
2017-06-28T06:52:04.401Z,22.11
2017-06-28T06:53:05.042Z,22.10
2017-06-28T06:54:05.683Z,22.02
2017-06-28T06:55:06.328Z,22.02
2017-06-28T06:56:06.967Z,22.06
2017-06-28T06:57:07.614Z,22.10
2017-06-28T06:58:08.310Z,22.04
2017-06-28T06:59:08.952Z,22.08
2017-06-28T07:00:09.895Z,22.11
2017-06-28T07:01:10.538Z,22.04
2017-06-28T07:02:11.179Z,22.07
2017-06-28T07:03:11.820Z,22.00
2017-06-28T07:04:12.464Z,22.07
2017-06-28T07:05:13.107Z,22.08
2017-06-28T07:06:13.750Z,22.11
2017-06-28T07:07:14.394Z,22.06
2017-06-28T07:08:15.036Z,22.15
2017-06-28T07:09:15.829Z,22.06
2017-06-28T07:10:16.470Z,22.06
2017-06-28T07:11:17.112Z,22.08
2017-06-28T07:12:17.708Z,22.14
2017-06-28T07:13:18.348Z,22.10
2017-06-28T07:14:18.988Z,22.10
2017-06-28T07:15:19.631Z,22.10
2017-06-28T07:16:20.271Z,22.15
2017-06-28T07:17:21.116Z,22.11
2017-06-28T07:18:21.759Z,22.15
2017-06-28T07:19:22.459Z,22.14
2017-06-28T07:20:23.100Z,22.08
2017-06-28T07:21:23.745Z,22.14
2017-06-28T07:22:24.384Z,22.08
2017-06-28T07:23:25.027Z,22.20
2017-06-28T07:24:25.668Z,22.22
2017-06-28T07:25:26.513Z,22.25
2017-06-28T07:26:27.154Z,22.22
2017-06-28T07:27:27.796Z,22.23
2017-06-28T07:28:28.437Z,22.18
2017-06-28T07:29:29.082Z,22.18
2017-06-28T07:30:29.725Z,22.17
2017-06-28T07:31:30.369Z,22.23
2017-06-28T07:32:31.011Z,22.22
2017-06-28T07:33:31.952Z,22.25
2017-06-28T07:34:32.592Z,22.22
2017-06-28T07:35:33.237Z,22.28
2017-06-28T07:36:33.878Z,22.18
2017-06-28T07:37:34.520Z,22.28
2017-06-28T07:38:35.165Z,22.23
2017-06-28T07:39:35.811Z,22.22
2017-06-28T07:40:36.450Z,22.30
2017-06-28T07:41:37.344Z,22.23
2017-06-28T07:42:37.986Z,22.29
2017-06-28T07:43:38.627Z,22.32
2017-06-28T07:44:39.273Z,22.38
2017-06-28T07:45:39.917Z,22.29
2017-06-28T07:46:40.557Z,22.26
2017-06-28T07:47:41.197Z,22.36
2017-06-28T07:48:41.842Z,22.26
2017-06-28T07:49:42.485Z,22.28
2017-06-28T07:50:43.326Z,22.30
2017-06-28T07:51:43.968Z,22.26
2017-06-28T07:52:44.609Z,22.22
2017-06-28T07:53:45.251Z,22.26
2017-06-28T07:54:45.894Z,22.28
2017-06-28T07:55:46.543Z,22.26
2017-06-28T07:56:47.177Z,22.28
2017-06-28T07:57:47.820Z,22.25
2017-06-28T07:58:48.615Z,22.25
2017-06-28T07:59:49.255Z,22.22
2017-06-28T08:00:49.899Z,22.26
2017-06-28T08:01:50.542Z,22.23
2017-06-28T08:02:51.183Z,22.22
2017-06-28T08:03:51.826Z,22.30
2017-06-28T08:04:52.468Z,22.23
2017-06-28T08:05:53.109Z,22.30
2017-06-28T08:06:53.951Z,22.26
2017-06-28T08:07:54.592Z,22.23
2017-06-28T08:08:55.235Z,22.23
2017-06-28T08:09:55.876Z,22.26
2017-06-28T08:10:56.519Z,22.25
2017-06-28T08:11:57.161Z,22.28
2017-06-28T08:12:57.807Z,22.26
2017-06-28T08:13:58.449Z,22.18
2017-06-28T08:14:59.392Z,22.15
2017-06-28T08:16:00.033Z,22.22
2017-06-28T08:17:00.733Z,22.14
2017-06-28T08:18:01.378Z,22.25
2017-06-28T08:19:02.017Z,22.11
2017-06-28T08:20:02.660Z,22.22
2017-06-28T08:21:03.300Z,22.17
2017-06-28T08:22:03.945Z,22.22
2017-06-28T08:23:04.590Z,22.10
2017-06-28T08:24:05.532Z,22.20
2017-06-28T08:25:06.172Z,22.17
2017-06-28T08:26:06.814Z,22.18
2017-06-28T08:27:07.457Z,22.18
2017-06-28T08:28:08.099Z,22.20
2017-06-28T08:29:08.740Z,22.14
2017-06-28T08:30:09.386Z,22.23
2017-06-28T08:31:10.030Z,22.22
2017-06-28T08:32:10.923Z,22.10
2017-06-28T08:33:11.565Z,22.29
2017-06-28T08:34:12.209Z,22.22
2017-06-28T08:35:12.849Z,22.28
2017-06-28T08:36:13.492Z,22.22
2017-06-28T08:37:14.135Z,22.20
2017-06-28T08:38:14.780Z,22.22
2017-06-28T08:39:15.423Z,22.18
2017-06-28T08:40:16.212Z,22.20
2017-06-28T08:41:16.855Z,22.17
2017-06-28T08:42:17.500Z,22.28
2017-06-28T08:43:18.142Z,22.18
2017-06-28T08:44:18.789Z,22.20
2017-06-28T08:45:19.430Z,22.23
2017-06-28T08:46:20.069Z,22.10
2017-06-28T08:47:20.708Z,22.20
2017-06-28T08:48:21.553Z,22.17
2017-06-28T08:49:22.196Z,22.18
2017-06-28T08:50:22.837Z,22.22
2017-06-28T08:51:23.480Z,22.18
2017-06-28T08:52:24.121Z,22.23
2017-06-28T08:53:24.765Z,22.26
2017-06-28T08:54:25.408Z,22.22
2017-06-28T08:55:26.052Z,22.25
2017-06-28T08:56:26.896Z,22.25
2017-06-28T08:57:27.536Z,22.25
2017-06-28T08:58:28.180Z,22.25
2017-06-28T08:59:28.822Z,22.39
2017-06-28T09:00:29.472Z,22.38
2017-06-28T09:01:30.108Z,22.43
2017-06-28T09:02:30.749Z,22.43
2017-06-28T09:03:31.391Z,22.36
2017-06-28T09:04:32.032Z,22.47
2017-06-28T09:05:32.874Z,22.57
2017-06-28T09:06:33.516Z,22.47
2017-06-28T09:07:34.158Z,22.45
2017-06-28T09:08:34.799Z,22.59
2017-06-28T09:09:35.441Z,22.60
2017-06-28T09:10:36.084Z,22.59
2017-06-28T09:11:36.728Z,22.65
2017-06-28T09:12:37.369Z,22.57
2017-06-28T09:13:38.210Z,22.62
2017-06-28T09:14:38.855Z,22.59
2017-06-28T09:15:39.497Z,22.68
2017-06-28T09:16:40.141Z,22.62
2017-06-28T09:17:40.787Z,22.59
2017-06-28T09:18:41.428Z,22.66
2017-06-28T09:19:42.069Z,22.65
2017-06-28T09:20:42.712Z,22.69
2017-06-28T09:21:43.553Z,22.62
2017-06-28T09:22:44.194Z,22.68
2017-06-28T09:23:44.835Z,22.68
2017-06-28T09:24:45.478Z,22.70
2017-06-28T09:25:46.123Z,22.73
2017-06-28T09:26:46.774Z,22.70
2017-06-28T09:27:47.421Z,22.68
2017-06-28T09:28:48.069Z,22.68
2017-06-28T09:29:48.923Z,22.72
2017-06-28T09:30:49.633Z,22.72
2017-06-28T09:31:50.285Z,22.72
2017-06-28T09:32:50.933Z,22.80
2017-06-28T09:33:51.582Z,22.72
2017-06-28T09:34:52.230Z,22.72
2017-06-28T09:35:52.878Z,22.78
2017-06-28T09:36:53.525Z,22.75
2017-06-28T09:37:54.173Z,22.75
2017-06-28T09:39:41.505Z,22.80
2017-06-28T09:40:42.154Z,22.80
2017-06-28T09:41:42.801Z,22.84
2017-06-28T09:42:43.450Z,22.88
2017-06-28T09:43:44.088Z,22.84
2017-06-28T09:44:44.731Z,22.85
2017-06-28T09:45:45.373Z,22.87
2017-06-28T09:46:46.219Z,22.90
2017-06-28T09:47:46.864Z,22.85
2017-06-28T09:48:47.506Z,22.88
2017-06-28T09:49:48.149Z,22.88
2017-06-28T09:50:48.791Z,22.90
2017-06-28T09:51:49.438Z,22.91
2017-06-28T09:52:50.090Z,23.08
2017-06-28T09:53:50.791Z,23.20
2017-06-28T09:54:51.590Z,23.17
2017-06-28T09:55:52.238Z,23.23
2017-06-28T09:56:52.886Z,23.34
2017-06-28T09:57:53.534Z,23.40
2017-06-28T09:58:54.182Z,23.40
2017-06-28T09:59:54.828Z,23.46
2017-06-28T10:00:55.474Z,23.46
2017-06-28T10:01:56.119Z,23.51
2017-06-28T10:02:56.965Z,23.51
2017-06-28T10:03:57.611Z,23.55
2017-06-28T10:04:58.260Z,23.65
2017-06-28T10:05:58.910Z,23.77
2017-06-28T10:06:59.615Z,23.74
2017-06-28T10:08:00.263Z,23.80
2017-06-28T10:09:00.912Z,23.92
2017-06-28T10:10:01.560Z,23.93
2017-06-28T10:11:02.207Z,24.02
2017-06-28T10:12:03.005Z,24.03
2017-06-28T10:13:03.654Z,24.16
2017-06-28T10:14:04.304Z,24.24
2017-06-28T10:15:04.956Z,24.26
2017-06-28T10:16:05.604Z,24.39
2017-06-28T10:17:06.253Z,24.38
2017-06-28T10:18:06.904Z,24.43
2017-06-28T10:19:07.553Z,24.48
2017-06-28T10:20:08.402Z,24.39
2017-06-28T10:21:09.050Z,24.55
2017-06-28T10:22:09.700Z,24.55
2017-06-28T10:23:10.348Z,24.57
2017-06-28T10:24:10.996Z,24.55
2017-06-28T10:25:11.642Z,24.73
2017-06-28T10:26:12.290Z,24.78
2017-06-28T10:27:12.941Z,24.84
2017-06-28T10:28:13.788Z,24.80
2017-06-28T10:29:14.438Z,24.86
2017-06-28T10:30:15.086Z,24.85
2017-06-28T10:31:15.737Z,25.01
2017-06-28T10:32:16.385Z,24.91
2017-06-28T10:33:17.034Z,24.88
2017-06-28T10:34:17.685Z,24.86
2017-06-28T10:35:18.334Z,24.88
2017-06-28T10:36:19.187Z,24.88
2017-06-28T10:37:19.836Z,24.91
2017-06-28T10:38:20.483Z,24.91
2017-06-28T10:39:21.131Z,24.98
2017-06-28T10:40:21.779Z,24.98
2017-06-28T10:41:22.427Z,24.96
2017-06-28T10:42:23.076Z,24.99
2017-06-28T10:43:23.722Z,25.07
2017-06-28T10:44:24.371Z,25.16
2017-06-28T10:45:26.021Z,25.21
2017-06-28T10:46:26.672Z,25.17
2017-06-28T10:47:27.322Z,25.22
2017-06-28T10:48:27.974Z,25.14
2017-06-28T10:49:28.624Z,25.14
2017-06-28T10:50:29.274Z,25.13
2017-06-28T10:51:29.926Z,25.14
2017-06-28T10:52:30.582Z,25.10
2017-06-28T10:53:31.427Z,25.03
2017-06-28T10:54:32.076Z,24.99
2017-06-28T10:55:32.721Z,24.91
2017-06-28T10:56:33.371Z,24.85
2017-06-28T10:57:34.020Z,24.78
2017-06-28T10:58:34.670Z,24.74
2017-06-28T10:59:35.317Z,24.78
2017-06-28T11:00:35.964Z,24.69
2017-06-28T11:01:36.814Z,24.60
2017-06-28T11:02:37.462Z,24.73
2017-06-28T11:03:38.113Z,24.60
2017-06-28T11:04:38.763Z,24.61
2017-06-28T11:05:39.418Z,24.69
2017-06-28T11:06:40.063Z,24.73
2017-06-28T11:07:40.716Z,24.73
2017-06-28T11:08:41.364Z,24.74
2017-06-28T11:09:42.218Z,24.76
2017-06-28T11:10:43.635Z,24.77
2017-06-28T11:11:44.254Z,24.77
2017-06-28T11:12:44.907Z,24.77
2017-06-28T11:13:45.558Z,24.74
2017-06-28T11:14:46.206Z,24.77
2017-06-28T11:15:46.860Z,24.70
2017-06-28T11:16:47.509Z,24.78
2017-06-28T11:17:48.362Z,24.77
2017-06-28T11:18:49.011Z,24.86
2017-06-28T11:19:49.658Z,25.03
2017-06-28T11:20:50.309Z,25.03
2017-06-28T11:21:51.015Z,25.14
2017-06-28T11:22:51.664Z,25.23
2017-06-28T11:23:52.314Z,25.26
2017-06-28T11:24:52.965Z,25.18
2017-06-28T11:25:53.618Z,25.44
2017-06-28T11:26:54.469Z,25.32
2017-06-28T11:27:55.118Z,25.48
2017-06-28T11:28:55.768Z,25.41
2017-06-28T11:29:56.416Z,25.40
2017-06-28T11:30:57.066Z,25.36
2017-06-28T11:31:57.715Z,25.33
2017-06-28T11:32:58.362Z,25.31
2017-06-28T11:33:59.012Z,25.22
2017-06-28T11:34:59.910Z,25.22
2017-06-28T11:36:00.561Z,25.21
2017-06-28T11:37:01.210Z,25.28
2017-06-28T11:38:01.862Z,25.25
2017-06-28T11:39:02.512Z,25.21
2017-06-28T11:40:03.161Z,25.23
2017-06-28T11:41:03.809Z,25.23
2017-06-28T11:42:04.463Z,25.17
2017-06-28T11:43:05.361Z,25.25
2017-06-28T11:44:06.015Z,25.33
2017-06-28T11:45:06.665Z,25.40
2017-06-28T11:46:07.327Z,25.46
2017-06-28T11:47:07.970Z,25.53
2017-06-28T11:48:08.619Z,25.58
2017-06-28T11:49:09.273Z,25.58
2017-06-28T11:50:09.926Z,25.66
2017-06-28T11:51:10.827Z,25.70
2017-06-28T11:52:11.478Z,25.58
2017-06-28T11:53:12.131Z,25.63
2017-06-28T11:54:12.782Z,25.63
2017-06-28T11:55:13.433Z,25.63
2017-06-28T11:56:14.087Z,25.58
2017-06-28T11:57:14.737Z,25.54
2017-06-28T11:58:15.389Z,25.66
2017-06-28T11:59:16.292Z,25.84
2017-06-28T12:00:16.943Z,25.80
2017-06-28T12:01:17.594Z,25.85
2017-06-28T12:02:18.247Z,25.85
2017-06-28T12:03:18.900Z,25.88
2017-06-28T12:04:19.556Z,25.90
2017-06-28T12:05:20.208Z,26.02
2017-06-28T12:06:20.810Z,25.96
2017-06-28T12:07:21.461Z,25.81
2017-06-28T12:08:22.263Z,25.73
2017-06-28T12:09:22.915Z,25.77
2017-06-28T12:10:23.565Z,25.73
2017-06-28T12:11:24.216Z,25.70
2017-06-28T12:12:24.868Z,25.70
2017-06-28T12:13:25.520Z,25.55
2017-06-28T12:14:26.169Z,25.50
2017-06-28T12:15:26.820Z,25.38
2017-06-28T12:16:27.986Z,25.35
2017-06-28T12:17:29.586Z,25.33
2017-06-28T12:18:30.236Z,25.36
2017-06-28T12:19:30.946Z,25.43
2017-06-28T12:20:31.597Z,25.50
2017-06-28T12:21:32.249Z,25.70
2017-06-28T12:22:32.904Z,25.69
2017-06-28T12:23:33.555Z,25.72
2017-06-28T12:24:34.408Z,25.75
2017-06-28T12:25:35.057Z,25.81
2017-06-28T12:26:35.710Z,25.96
2017-06-28T12:27:36.364Z,26.16
2017-06-28T12:28:37.016Z,26.21
2017-06-28T12:29:37.672Z,26.43
2017-06-28T12:30:38.326Z,26.48
2017-06-28T12:31:38.979Z,26.40
2017-06-28T12:32:39.782Z,26.37
2017-06-28T12:33:40.434Z,26.63
2017-06-28T12:34:41.036Z,26.47
2017-06-28T12:35:41.692Z,26.59
2017-06-28T12:36:42.343Z,26.52
2017-06-28T12:37:42.994Z,26.51
2017-06-28T12:38:43.647Z,26.37
2017-06-28T12:39:44.297Z,26.41
2017-06-28T12:40:44.952Z,26.74
2017-06-28T12:41:45.803Z,26.80
2017-06-28T12:42:46.454Z,26.95
2017-06-28T12:43:47.104Z,27.03
2017-06-28T12:44:47.757Z,27.17
2017-06-28T12:45:48.411Z,27.33
2017-06-28T12:46:49.061Z,27.40
2017-06-28T12:47:49.713Z,27.26
2017-06-28T12:48:50.369Z,27.35
2017-06-28T12:49:51.172Z,27.11
2017-06-28T12:50:51.826Z,27.27
2017-06-28T12:51:52.479Z,27.39
2017-06-28T12:52:53.131Z,27.39
2017-06-28T12:53:53.790Z,27.39
2017-06-28T12:54:54.444Z,27.22
2017-06-28T12:55:55.098Z,27.30
2017-06-28T12:56:55.752Z,27.29
2017-06-28T12:57:56.607Z,27.37
2017-06-28T12:58:57.261Z,27.30
2017-06-28T12:59:57.913Z,27.29
2017-06-28T13:00:58.567Z,27.40
2017-06-28T13:01:59.221Z,27.33